SWA2861 KOAK-KLAX
Flight info
| Callsign | SWA2861 |
|---|---|
| Flight time | N/A |
| Altitude | 35000 |
| Route | CNDEL5 SUSEY EBAYE BURGL IRNMN2 |
| Aircraft | B38M/M-SADE2E3GHIJ4J7P2RWZ/LB1D1 |
Departure
| Time | 2026-05-04 06:34 |
|---|---|
| Airport | San Francisco Bay Oakland International Airport (KOAK) |
Arrival
| Time | N/A |
|---|---|
| Airport | Los Angeles International Airport (KLAX) |
| Time | Latitude | Longitude | Altitude | Speed | Heading |
|---|---|---|---|---|---|
| 2026-05-04 05:49 | 37.70956 | -122.21310 | 13 ft | 0 kts | 126° |
| 2026-05-04 06:26 | 37.70962 | -122.21321 | 11 ft | 4 kts | 123° |
| 2026-05-04 06:26 | 37.70975 | -122.21350 | 11 ft | 4 kts | 118° |
| 2026-05-04 06:26 | 37.70988 | -122.21374 | 13 ft | 4 kts | 133° |
| 2026-05-04 06:27 | 37.71035 | -122.21355 | 12 ft | 0 kts | 214° |
| 2026-05-04 06:31 | 37.71032 | -122.21357 | 13 ft | 1 kts | 214° |
| 2026-05-04 06:31 | 37.70993 | -122.21392 | 14 ft | 14 kts | 216° |
| 2026-05-04 06:31 | 37.70894 | -122.21485 | 14 ft | 17 kts | 219° |
| 2026-05-04 06:31 | 37.70851 | -122.21613 | 11 ft | 17 kts | 229° |
| 2026-05-04 06:32 | 37.70756 | -122.21715 | 13 ft | 19 kts | 220° |
| 2026-05-04 06:33 | 37.70238 | -122.21558 | 11 ft | 35 kts | 310° |
| 2026-05-04 06:34 | 37.70564 | -122.22050 | 13 ft | 109 kts | 310° |
| 2026-05-04 06:34 | 37.71189 | -122.22977 | 46 ft | 162 kts | 311° |
| 2026-05-04 06:34 | 37.71951 | -122.24063 | 702 ft | 166 kts | 309° |
| 2026-05-04 06:34 | 37.72713 | -122.25161 | 1316 ft | 167 kts | 308° |
| 2026-05-04 06:35 | 37.73460 | -122.26270 | 1524 ft | 165 kts | 308° |
| 2026-05-04 06:36 | 37.79209 | -122.36451 | 6024 ft | 237 kts | 274° |
| 2026-05-04 06:37 | 37.79049 | -122.38537 | 6632 ft | 243 kts | 244° |
| 2026-05-04 06:37 | 37.78071 | -122.40256 | 7228 ft | 246 kts | 213° |
| 2026-05-04 06:37 | 37.76560 | -122.41222 | 8041 ft | 241 kts | 193° |
| 2026-05-04 06:37 | 37.74958 | -122.41670 | 9096 ft | 232 kts | 186° |
| 2026-05-04 06:38 | 37.73358 | -122.41978 | 9948 ft | 236 kts | 185° |
| 2026-05-04 06:38 | 37.71714 | -122.42306 | 10518 ft | 249 kts | 186° |
| 2026-05-04 06:40 | 37.59154 | -122.45212 | 15806 ft | 281 kts | 187° |
| 2026-05-04 06:40 | 37.57158 | -122.45639 | 16275 ft | 300 kts | 188° |
| 2026-05-04 06:40 | 37.55050 | -122.46106 | 16853 ft | 314 kts | 188° |
| 2026-05-04 06:40 | 37.52880 | -122.46590 | 17641 ft | 318 kts | 188° |
| 2026-05-04 06:41 | 37.50673 | -122.46778 | 18429 ft | 319 kts | 171° |
| 2026-05-04 06:41 | 37.48572 | -122.45934 | 19124 ft | 319 kts | 149° |
| 2026-05-04 06:41 | 37.46830 | -122.44214 | 19796 ft | 320 kts | 134° |
| 2026-05-04 06:41 | 37.45258 | -122.42204 | 20438 ft | 324 kts | 133° |
| 2026-05-04 06:42 | 37.43690 | -122.40152 | 21042 ft | 327 kts | 133° |
| 2026-05-04 06:42 | 37.42120 | -122.38065 | 21691 ft | 330 kts | 133° |
| 2026-05-04 06:42 | 37.40540 | -122.35943 | 22313 ft | 333 kts | 132° |
| 2026-05-04 06:44 | 37.29204 | -122.20592 | 25848 ft | 354 kts | 133° |
| 2026-05-04 06:44 | 37.27523 | -122.18319 | 26219 ft | 359 kts | 134° |
| 2026-05-04 06:44 | 37.25803 | -122.15995 | 26528 ft | 365 kts | 134° |
| 2026-05-04 06:45 | 37.24069 | -122.13654 | 26957 ft | 368 kts | 134° |
| 2026-05-04 06:45 | 37.22319 | -122.11291 | 27325 ft | 372 kts | 134° |
| 2026-05-04 06:45 | 37.20547 | -122.08902 | 27711 ft | 375 kts | 135° |
| 2026-05-04 06:45 | 37.18762 | -122.06496 | 28092 ft | 378 kts | 135° |
| 2026-05-04 06:46 | 37.16963 | -122.04074 | 28527 ft | 380 kts | 135° |
| 2026-05-04 06:46 | 37.15178 | -122.01672 | 28820 ft | 384 kts | 135° |
| 2026-05-04 06:46 | 37.13348 | -121.99209 | 29127 ft | 389 kts | 137° |
| 2026-05-04 06:46 | 37.11485 | -121.96707 | 29295 ft | 396 kts | 137° |